Oglasa — ITMG — position and weather

sailwx.info

Track history (hours):
 
Tides and Currents Weather Stations Pressure Air Temp Water Temp Dewpoint Dewpoint Depression Visibility Wind Speed Wind Dir Waves Ship Positions

Oglasa

Last reported at 2015-Mar-27 15:25 UTC. Time now 2015-Mar-27 20:56 UTC.
Position N 42°51' E 010°23'.

Length 91 m; draft 3.6 m.

Type: Ship. MMSI: 247046800.

Date/timePositionNaut miles runAvg speedWind from/ knotsBaromVisibWave heightAir tempDewpointWater temp
2015-Mar-27 15:25N 42°51' E 010°23'8 0.2
2015-Mar-25 20:28N 42°54' E 010°32'0 0.0
2015-Mar-25 17:06N 42°54' E 010°32'9 0.5
2015-Mar-24 22:15N 42°50' E 010°21'2 0.1
2015-Mar-23 23:09N 42°49' E 010°19'0 0.0
2015-Mar-23 22:34N 42°49' E 010°19'1311.6
2015-Mar-23 21:28N 42°56' E 010°34'0 0.5
2015-Mar-23 20:32N 42°56' E 010°33'1210.3
2015-Mar-23 19:20N 42°49' E 010°19'6 8.2
2015-Mar-23 18:33N 42°53' E 010°26'7 4.9
2015-Mar-23 17:13N 42°56' E 010°34'914.3
2015-Mar-23 16:33N 42°51' E 010°23'2 1.6
2015-Mar-23 15:34N 42°50' E 010°22'1 0.0
2015-Mar-22 16:21N 42°49' E 010°20'3 2.8
2015-Mar-22 15:25N 42°51' E 010°23'3 0.1
2015-Mar-21 05:27N 42°49' E 010°20'0 0.0
2015-Mar-21 04:33N 42°49' E 010°20'0 0.0
2015-Mar-21 03:33N 42°49' E 010°20'0 0.0
2015-Mar-21 02:26N 42°49' E 010°20'0 0.0
2015-Mar-21 01:33N 42°49' E 010°20'2 0.6
2015-Mar-20 22:07N 42°50' E 010°22'915.7
2015-Mar-20 21:33N 42°54' E 010°32'1 0.6
2015-Mar-20 20:23N 42°54' E 010°33'1110.4
2015-Mar-20 19:19N 42°49' E 010°20'6 7.7
2015-Mar-20 18:33N 42°53' E 010°25'7 4.9
2015-Mar-20 17:10N 42°56' E 010°34'914.9
2015-Mar-20 16:34N 42°52' E 010°23'3 2.6
2015-Mar-20 15:34N 42°50' E 010°21'11 7.7
2015-Mar-20 14:09N 42°56' E 010°34'914.4
2015-Mar-20 13:31N 42°52' E 010°22'1 0.5
2015-Mar-20 11:21N 42°52' E 010°24'2 1.0
2015-Mar-20 09:33N 42°53' E 010°26'6 4.4
2015-Mar-20 08:09N 42°49' E 010°20'0 0.0
2015-Mar-20 07:31N 42°49' E 010°20'0 0.0
2015-Mar-20 06:29N 42°49' E 010°20'0 0.0
2015-Mar-20 04:14N 42°49' E 010°20'0 0.0
2015-Mar-20 01:18N 42°49' E 010°20'0 0.0
2015-Mar-20 00:33N 42°49' E 010°20'0 0.0
2015-Mar-19 22:32N 42°49' E 010°20'1111.0
2015-Mar-19 21:31N 42°55' E 010°33'0 0.3
2015-Mar-19 20:24N 42°54' E 010°33'6 3.0
2015-Mar-19 18:33N 42°53' E 010°25'6 4.3
2015-Mar-19 17:07N 42°55' E 010°33'814.8
2015-Mar-19 16:33N 42°52' E 010°23'1 1.4
2015-Mar-19 15:30N 42°50' E 010°22'2 1.1
2015-Mar-19 13:33N 42°52' E 010°23'3 1.4
2015-Mar-19 11:33N 42°50' E 010°21'11 7.4
2015-Mar-19 10:05N 42°56' E 010°34'713.3
2015-Mar-19 09:33N 42°53' E 010°25'6 1.1
2015-Mar-19 04:21N 42°49' E 010°20'0 0.0
2015-Mar-19 03:20N 42°49' E 010°20'0 0.0
2015-Mar-19 02:33N 42°49' E 010°20'0 0.0
2015-Mar-18 22:19N 42°49' E 010°20'1214.3
2015-Mar-18 21:30N 42°55' E 010°33'0 0.2
2015-Mar-18 20:27N 42°55' E 010°33'0 0.1
2015-Mar-18 18:10N 42°55' E 010°33'1 0.9
2015-Mar-18 17:11N 42°56' E 010°34'9 5.1
2015-Mar-18 15:26N 42°51' E 010°23'1 0.2
2015-Mar-18 11:32N 42°51' E 010°22'  
Track history (hours):
 
Tides and Currents Weather Stations Pressure Air Temp Water Temp Dewpoint Dewpoint Depression Visibility Wind Speed Wind Dir Waves Ship Positions

Oglasa

Last reported at 2015-Mar-27 15:25 UTC. Time now 2015-Mar-27 20:56 UTC.
Position N 42°51' E 010°23'.

Length 91 m; draft 3.6 m.

Type: Ship. MMSI: 247046800.

Date/timePositionNaut miles runAvg speedWind from/ knotsBaromVisibWave heightAir tempDewpointWater temp
2015-Mar-27 15:25N 42°51' E 010°23'8 0.2
2015-Mar-25 20:28N 42°54' E 010°32'0 0.0
2015-Mar-25 17:06N 42°54' E 010°32'9 0.5
2015-Mar-24 22:15N 42°50' E 010°21'2 0.1
2015-Mar-23 23:09N 42°49' E 010°19'0 0.0
2015-Mar-23 22:34N 42°49' E 010°19'1311.6
2015-Mar-23 21:28N 42°56' E 010°34'0 0.5
2015-Mar-23 20:32N 42°56' E 010°33'1210.3
2015-Mar-23 19:20N 42°49' E 010°19'6 8.2
2015-Mar-23 18:33N 42°53' E 010°26'7 4.9
2015-Mar-23 17:13N 42°56' E 010°34'914.3
2015-Mar-23 16:33N 42°51' E 010°23'2 1.6
2015-Mar-23 15:34N 42°50' E 010°22'1 0.0
2015-Mar-22 16:21N 42°49' E 010°20'3 2.8
2015-Mar-22 15:25N 42°51' E 010°23'3 0.1
2015-Mar-21 05:27N 42°49' E 010°20'0 0.0
2015-Mar-21 04:33N 42°49' E 010°20'0 0.0
2015-Mar-21 03:33N 42°49' E 010°20'0 0.0
2015-Mar-21 02:26N 42°49' E 010°20'0 0.0
2015-Mar-21 01:33N 42°49' E 010°20'2 0.6
2015-Mar-20 22:07N 42°50' E 010°22'915.7
2015-Mar-20 21:33N 42°54' E 010°32'1 0.6
2015-Mar-20 20:23N 42°54' E 010°33'1110.4
2015-Mar-20 19:19N 42°49' E 010°20'6 7.7
2015-Mar-20 18:33N 42°53' E 010°25'7 4.9
2015-Mar-20 17:10N 42°56' E 010°34'914.9
2015-Mar-20 16:34N 42°52' E 010°23'3 2.6
2015-Mar-20 15:34N 42°50' E 010°21'11 7.7
2015-Mar-20 14:09N 42°56' E 010°34'914.4
2015-Mar-20 13:31N 42°52' E 010°22'1 0.5
2015-Mar-20 11:21N 42°52' E 010°24'2 1.0
2015-Mar-20 09:33N 42°53' E 010°26'6 4.4
2015-Mar-20 08:09N 42°49' E 010°20'0 0.0
2015-Mar-20 07:31N 42°49' E 010°20'0 0.0
2015-Mar-20 06:29N 42°49' E 010°20'0 0.0
2015-Mar-20 04:14N 42°49' E 010°20'0 0.0
2015-Mar-20 01:18N 42°49' E 010°20'0 0.0
2015-Mar-20 00:33N 42°49' E 010°20'0 0.0
2015-Mar-19 22:32N 42°49' E 010°20'1111.0
2015-Mar-19 21:31N 42°55' E 010°33'0 0.3
2015-Mar-19 20:24N 42°54' E 010°33'6 3.0
2015-Mar-19 18:33N 42°53' E 010°25'6 4.3
2015-Mar-19 17:07N 42°55' E 010°33'814.8
2015-Mar-19 16:33N 42°52' E 010°23'1 1.4
2015-Mar-19 15:30N 42°50' E 010°22'2 1.1
2015-Mar-19 13:33N 42°52' E 010°23'3 1.4
2015-Mar-19 11:33N 42°50' E 010°21'11 7.4
2015-Mar-19 10:05N 42°56' E 010°34'713.3
2015-Mar-19 09:33N 42°53' E 010°25'6 1.1
2015-Mar-19 04:21N 42°49' E 010°20'0 0.0
2015-Mar-19 03:20N 42°49' E 010°20'0 0.0
2015-Mar-19 02:33N 42°49' E 010°20'0 0.0
2015-Mar-18 22:19N 42°49' E 010°20'1214.3
2015-Mar-18 21:30N 42°55' E 010°33'0 0.2
2015-Mar-18 20:27N 42°55' E 010°33'0 0.1
2015-Mar-18 18:10N 42°55' E 010°33'1 0.9
2015-Mar-18 17:11N 42°56' E 010°34'9 5.1
2015-Mar-18 15:26N 42°51' E 010°23'1 0.2
2015-Mar-18 11:32N 42°51' E 010°22'  

Dump ship's entire track history